createdAt,value
2019-01-24T00:02:24.141Z,100726.10
2019-01-24T00:05:27.831Z,100728.50
2019-01-24T00:08:31.490Z,100728.49
2019-01-24T00:11:36.183Z,100731.85
2019-01-24T00:14:39.838Z,100735.44
2019-01-24T00:17:43.410Z,100734.72
2019-01-24T00:20:47.059Z,100739.08
2019-01-24T00:23:50.610Z,100744.93
2019-01-24T00:26:54.282Z,100744.40
2019-01-24T00:29:57.790Z,100743.79
2019-01-24T00:33:01.377Z,100749.82
2019-01-24T00:36:04.978Z,100760.99
2019-01-24T00:39:08.994Z,100759.10
2019-01-24T00:42:12.606Z,100764.32
2019-01-24T00:45:16.241Z,100770.46
2019-01-24T00:48:19.846Z,100777.85
2019-01-24T00:51:23.452Z,100776.19
2019-01-24T00:54:27.016Z,100781.07
2019-01-24T00:57:30.611Z,100787.29
2019-01-24T01:00:34.284Z,100793.91
2019-01-24T01:03:37.939Z,100799.61
2019-01-24T01:06:41.595Z,100801.73
2019-01-24T01:09:45.239Z,100814.64
2019-01-24T01:12:48.856Z,100819.38
2019-01-24T01:15:52.460Z,100820.26
2019-01-24T01:18:56.023Z,100823.34
2019-01-24T01:21:59.618Z,100829.72
2019-01-24T01:25:03.312Z,100833.10
2019-01-24T01:28:06.909Z,100840.97
2019-01-24T01:31:10.488Z,100836.65
2019-01-24T01:34:14.142Z,100840.80
2019-01-24T01:37:17.650Z,100844.57
2019-01-24T01:40:21.314Z,100845.07
2019-01-24T01:43:24.829Z,100854.26
2019-01-24T01:46:29.429Z,100860.24
2019-01-24T01:49:32.998Z,100858.32
2019-01-24T01:52:36.685Z,100856.16
2019-01-24T01:55:40.168Z,100859.21
2019-01-24T01:58:43.736Z,100868.00
2019-01-24T02:01:47.342Z,100866.99
2019-01-24T02:04:50.932Z,100865.06
2019-01-24T02:07:54.565Z,100868.39
2019-01-24T02:10:58.146Z,100867.20
2019-01-24T02:14:01.735Z,100867.59
2019-01-24T02:17:05.291Z,100870.64
2019-01-24T02:20:11.859Z,100870.49
2019-01-24T02:23:15.426Z,100873.47
2019-01-24T02:26:19.061Z,100869.66
2019-01-24T02:29:22.612Z,100863.42
2019-01-24T02:32:26.192Z,100860.69
2019-01-24T02:35:29.721Z,100860.26
2019-01-24T02:38:33.207Z,100860.31
2019-01-24T02:41:36.762Z,100867.20
2019-01-24T02:44:40.270Z,100868.75
2019-01-24T02:47:43.922Z,100870.99
2019-01-24T02:50:47.457Z,100875.90
2019-01-24T02:53:51.083Z,100884.53
2019-01-24T02:56:54.640Z,100886.36
2019-01-24T02:59:58.190Z,100891.79
2019-01-24T03:03:01.856Z,100895.66
2019-01-24T03:06:05.450Z,100894.50
2019-01-24T03:09:09.001Z,100892.80
2019-01-24T03:12:12.579Z,100894.98
2019-01-24T03:15:17.521Z,100894.71
2019-01-24T03:18:21.133Z,100901.53
2019-01-24T03:21:24.719Z,100904.52
2019-01-24T03:24:28.315Z,100905.52
2019-01-24T03:27:31.851Z,100908.74
2019-01-24T03:30:35.461Z,100913.68
2019-01-24T03:33:39.071Z,100919.03
2019-01-24T03:36:42.695Z,100919.80
2019-01-24T03:39:46.366Z,100921.45
2019-01-24T03:42:49.836Z,100925.83
2019-01-24T03:45:54.007Z,100925.31
2019-01-24T03:48:57.615Z,100926.88
2019-01-24T03:52:01.233Z,100929.38
2019-01-24T03:55:05.889Z,100935.15
2019-01-24T03:58:09.556Z,100940.66
2019-01-24T04:01:13.203Z,100937.37
2019-01-24T04:04:16.842Z,100938.21
2019-01-24T04:07:20.475Z,100942.41
2019-01-24T04:10:24.197Z,100942.80
2019-01-24T04:13:28.893Z,100945.99
2019-01-24T04:16:32.523Z,100944.46
2019-01-24T04:19:36.247Z,100951.67
2019-01-24T04:22:40.214Z,100950.41
2019-01-24T04:25:43.847Z,100950.01
2019-01-24T04:28:47.502Z,100956.52
2019-01-24T04:31:51.029Z,100955.17
2019-01-24T04:34:54.698Z,100955.69
2019-01-24T04:37:58.358Z,100959.01
2019-01-24T04:41:02.058Z,100959.66
2019-01-24T04:44:06.115Z,100963.68
2019-01-24T04:47:09.780Z,100964.43
2019-01-24T04:50:14.800Z,100962.67
2019-01-24T04:53:18.317Z,100964.08
2019-01-24T04:56:21.968Z,100965.22
2019-01-24T04:59:25.624Z,100973.33
2019-01-24T05:02:29.236Z,100977.01
2019-01-24T05:05:33.015Z,100974.92
2019-01-24T05:08:36.630Z,100975.31
2019-01-24T05:11:40.200Z,100985.23
2019-01-24T05:14:43.825Z,100988.64
2019-01-24T05:17:47.487Z,100996.53
2019-01-24T05:20:51.151Z,101005.65
2019-01-24T05:23:54.742Z,101007.17
2019-01-24T05:26:58.370Z,101016.01
2019-01-24T05:30:01.986Z,101021.07
2019-01-24T05:33:05.808Z,101020.06
2019-01-24T05:36:09.420Z,101020.19
2019-01-24T05:39:13.008Z,101026.09
2019-01-24T05:42:16.706Z,101030.69
2019-01-24T05:45:20.510Z,101031.77
2019-01-24T05:48:25.090Z,101035.25
2019-01-24T05:51:28.769Z,101036.74
2019-01-24T05:54:32.427Z,101039.36
2019-01-24T05:57:36.161Z,101043.76
2019-01-24T06:00:41.912Z,101046.92
2019-01-24T06:03:45.654Z,101054.61
2019-01-24T06:06:49.361Z,101056.36
2019-01-24T06:09:52.825Z,101053.35
2019-01-24T06:12:56.369Z,101056.58
2019-01-24T06:16:00.103Z,101069.54
2019-01-24T06:19:03.860Z,101071.10
2019-01-24T06:22:07.421Z,101074.54
2019-01-24T06:25:11.199Z,101079.21
2019-01-24T06:28:14.851Z,101087.03
2019-01-24T06:31:18.763Z,101089.17
2019-01-24T06:34:22.388Z,101099.39
2019-01-24T06:37:26.081Z,101099.32
2019-01-24T06:40:29.655Z,101110.28
2019-01-24T06:43:33.425Z,101107.45
2019-01-24T06:46:37.347Z,101113.07
2019-01-24T06:49:41.080Z,101112.25
2019-01-24T06:52:44.678Z,101117.33
2019-01-24T06:55:48.534Z,101122.01
2019-01-24T06:58:52.180Z,101128.71
2019-01-24T07:01:55.812Z,101134.99
2019-01-24T07:04:59.514Z,101135.23
2019-01-24T07:08:03.275Z,101134.17
2019-01-24T07:11:06.922Z,101139.42
2019-01-24T07:14:10.476Z,101145.98
2019-01-24T07:17:14.041Z,101143.38
2019-01-24T07:20:17.870Z,101144.42
2019-01-24T07:23:21.505Z,101153.85
2019-01-24T07:26:25.144Z,101159.13
2019-01-24T07:29:28.719Z,101169.19
2019-01-24T07:32:32.405Z,101173.83
2019-01-24T07:35:36.147Z,101180.74
2019-01-24T07:38:39.800Z,101186.40
2019-01-24T07:41:43.568Z,101183.63
2019-01-24T07:44:47.161Z,101185.78
2019-01-24T07:47:50.725Z,101195.31
2019-01-24T07:50:54.373Z,101195.46
2019-01-24T07:53:57.969Z,101199.77
2019-01-24T07:57:01.581Z,101203.99
2019-01-24T08:00:07.609Z,101204.51
2019-01-24T08:03:11.284Z,101207.47
2019-01-24T08:06:14.891Z,101205.89
2019-01-24T08:09:18.478Z,101211.83
2019-01-24T08:12:22.107Z,101216.63
2019-01-24T08:15:25.807Z,101223.94
2019-01-24T08:18:29.378Z,101225.32
2019-01-24T08:21:33.032Z,101227.23
2019-01-24T08:24:36.598Z,101228.16
2019-01-24T08:27:40.130Z,101230.15
2019-01-24T08:30:46.125Z,101229.69
2019-01-24T08:33:50.811Z,101225.75
2019-01-24T08:36:54.506Z,101227.91
2019-01-24T08:39:58.119Z,101235.85
2019-01-24T08:43:01.718Z,101233.75
2019-01-24T08:46:05.386Z,101236.35
2019-01-24T08:49:09.052Z,101241.16
2019-01-24T08:52:12.617Z,101242.41
2019-01-24T08:55:22.725Z,101243.13
2019-01-24T08:58:26.415Z,101243.13
2019-01-24T09:01:30.013Z,101247.82
2019-01-24T09:04:33.616Z,101249.25
2019-01-24T09:07:37.350Z,101245.91
2019-01-24T09:10:41.026Z,101243.86
2019-01-24T09:13:44.787Z,101258.51
2019-01-24T09:16:48.491Z,101262.78
2019-01-24T09:19:52.175Z,101258.44
2019-01-24T09:22:55.741Z,101259.00
2019-01-24T09:25:59.386Z,101271.69
2019-01-24T09:29:03.093Z,101274.98
2019-01-24T09:32:06.776Z,101278.13
2019-01-24T09:35:10.790Z,101278.47
2019-01-24T09:38:14.508Z,101289.01
2019-01-24T09:41:18.139Z,101290.87
2019-01-24T09:44:21.745Z,101293.46
2019-01-24T09:47:25.305Z,101295.27
2019-01-24T09:50:29.149Z,101309.21
2019-01-24T09:53:33.759Z,101313.78
2019-01-24T09:56:38.557Z,101314.22
2019-01-24T09:59:42.452Z,101320.40
2019-01-24T10:02:46.478Z,101327.04
2019-01-24T10:05:51.289Z,101332.77
2019-01-24T10:08:55.263Z,101333.00
2019-01-24T10:12:00.013Z,101333.52
2019-01-24T10:15:03.845Z,101338.70
2019-01-24T10:18:07.616Z,101333.26
2019-01-24T10:21:11.303Z,101345.21
2019-01-24T10:24:15.093Z,101337.15
2019-01-24T10:27:18.705Z,101334.41
2019-01-24T10:30:22.851Z,101338.54
2019-01-24T10:33:28.875Z,101338.64
2019-01-24T10:36:33.115Z,101335.22
2019-01-24T10:39:37.093Z,101344.08
2019-01-24T10:42:40.798Z,101340.21
2019-01-24T10:45:45.741Z,101337.63
2019-01-24T10:48:50.838Z,101341.76
2019-01-24T10:51:55.945Z,101339.52
2019-01-24T10:54:59.648Z,101339.69
2019-01-24T10:58:04.032Z,101335.35
2019-01-24T11:01:07.703Z,101334.61
2019-01-24T11:04:11.490Z,101340.82
2019-01-24T11:07:15.201Z,101339.24
2019-01-24T11:10:19.197Z,101336.11
2019-01-24T11:13:22.851Z,101334.96
2019-01-24T11:16:26.721Z,101334.35
2019-01-24T11:19:30.327Z,101343.66
2019-01-24T11:22:34.162Z,101346.07
2019-01-24T11:25:37.854Z,101341.76
2019-01-24T11:28:41.610Z,101340.63
2019-01-24T11:31:45.348Z,101339.96
2019-01-24T11:34:49.965Z,101342.88
2019-01-24T11:37:54.680Z,101331.55
2019-01-24T11:40:58.418Z,101340.09
2019-01-24T11:44:02.082Z,101331.42
2019-01-24T11:47:05.800Z,101331.36
2019-01-24T11:50:12.364Z,101331.90
2019-01-24T11:53:16.196Z,101333.68
2019-01-24T11:56:19.917Z,101331.61
2019-01-24T11:59:23.465Z,101331.88
2019-01-24T12:02:27.333Z,101330.87
2019-01-24T12:05:30.937Z,101332.31
2019-01-24T12:08:34.510Z,101333.05
2019-01-24T12:11:38.145Z,101327.31
2019-01-24T12:14:41.879Z,101327.30
2019-01-24T12:17:46.561Z,101324.63
2019-01-24T12:20:50.075Z,101319.41
2019-01-24T12:23:53.564Z,101323.51
2019-01-24T12:26:57.168Z,101318.31
2019-01-24T12:30:00.767Z,101321.71
2019-01-24T12:33:05.237Z,101323.67
2019-01-24T12:36:08.855Z,101330.15
2019-01-24T12:39:12.361Z,101328.22
2019-01-24T12:42:15.807Z,101323.67
2019-01-24T12:45:24.586Z,101325.02
2019-01-24T12:48:28.136Z,101322.05
2019-01-24T12:51:31.715Z,101329.72
2019-01-24T12:54:35.328Z,101324.87
2019-01-24T12:57:38.996Z,101324.41
2019-01-24T13:00:42.571Z,101325.90
2019-01-24T13:03:46.141Z,101334.87
2019-01-24T13:06:49.800Z,101334.54
2019-01-24T13:09:53.338Z,101341.71
2019-01-24T13:12:57.011Z,101342.85
2019-01-24T13:16:00.579Z,101343.89
2019-01-24T13:19:04.238Z,101346.02
2019-01-24T13:22:07.856Z,101349.29
2019-01-24T13:25:14.200Z,101357.69
2019-01-24T13:28:17.781Z,101346.79
2019-01-24T13:31:21.381Z,101351.49
2019-01-24T13:34:24.937Z,101349.41
2019-01-24T13:37:28.455Z,101363.48
2019-01-24T13:40:32.747Z,101367.67
2019-01-24T13:43:36.370Z,101370.03
2019-01-24T13:46:40.634Z,101372.30
2019-01-24T13:49:43.576Z,101378.49
2019-01-24T13:52:47.186Z,101377.84
2019-01-24T13:55:50.677Z,101379.99
2019-01-24T13:58:54.294Z,101387.89
2019-01-24T14:01:57.935Z,101386.49
2019-01-24T14:05:01.503Z,101394.11
2019-01-24T14:08:05.166Z,101402.19
2019-01-24T14:11:08.754Z,101401.96
2019-01-24T14:14:12.416Z,101402.56
2019-01-24T14:17:15.984Z,101413.65
2019-01-24T14:20:19.676Z,101418.38
2019-01-24T14:23:23.287Z,101413.79
2019-01-24T14:26:26.889Z,101419.42
2019-01-24T14:29:30.730Z,101427.75
2019-01-24T14:32:35.027Z,101429.98
2019-01-24T14:35:38.656Z,101437.56
2019-01-24T14:38:42.283Z,101444.20
2019-01-24T14:41:45.758Z,101443.13
2019-01-24T14:44:49.384Z,101448.88
2019-01-24T14:47:52.937Z,101444.69
2019-01-24T14:50:56.519Z,101450.13
2019-01-24T14:54:00.046Z,101445.91
2019-01-24T14:57:03.745Z,101436.61
2019-01-24T15:00:13.799Z,101437.73
2019-01-24T15:03:17.448Z,101439.09
2019-01-24T15:06:21.088Z,101437.97
2019-01-24T15:09:24.672Z,101431.54
2019-01-24T15:12:28.225Z,101440.20
2019-01-24T15:15:31.957Z,101445.25
2019-01-24T15:18:35.569Z,101447.06
2019-01-24T15:21:39.143Z,101451.82
2019-01-24T15:24:42.746Z,101458.87
2019-01-24T15:27:46.306Z,101456.52
2019-01-24T15:30:49.835Z,101464.27
2019-01-24T15:33:53.359Z,101464.78
2019-01-24T15:36:57.021Z,101473.74
2019-01-24T15:40:00.597Z,101463.79
2019-01-24T15:43:04.293Z,101478.24
2019-01-24T15:46:07.868Z,101483.16
2019-01-24T15:49:11.316Z,101480.21
2019-01-24T15:52:15.913Z,101487.05
2019-01-24T15:55:19.636Z,101492.31
2019-01-24T15:58:23.223Z,101494.55
2019-01-24T16:01:26.672Z,101498.95
2019-01-24T16:04:30.233Z,101496.95
2019-01-24T16:07:33.809Z,101502.78
2019-01-24T16:10:37.413Z,101503.65
2019-01-24T16:13:41.079Z,101506.29
2019-01-24T16:16:48.908Z,101504.51
2019-01-24T16:19:54.230Z,101507.48
2019-01-24T16:22:57.998Z,101506.15
2019-01-24T16:26:01.787Z,101509.29
2019-01-24T16:29:05.450Z,101517.87
2019-01-24T16:32:10.200Z,101522.82
2019-01-24T16:35:13.968Z,101528.44
2019-01-24T16:38:17.536Z,101532.49
2019-01-24T16:41:21.382Z,101539.62
2019-01-24T16:44:25.082Z,101544.96
2019-01-24T16:47:28.857Z,101542.31
2019-01-24T16:50:32.606Z,101547.10
2019-01-24T16:53:36.337Z,101559.17
2019-01-24T16:56:39.978Z,101561.47
2019-01-24T16:59:43.639Z,101562.10
2019-01-24T17:02:47.333Z,101564.19
2019-01-24T17:05:51.122Z,101567.06
2019-01-24T17:08:55.679Z,101565.41
2019-01-24T17:11:59.250Z,101573.61
2019-01-24T17:15:02.865Z,101579.58
2019-01-24T17:18:06.796Z,101584.38
2019-01-24T17:21:10.385Z,101578.54
2019-01-24T17:24:13.973Z,101588.12
2019-01-24T17:27:17.582Z,101587.20
2019-01-24T17:30:22.977Z,101596.68
2019-01-24T17:33:26.660Z,101599.16
2019-01-24T17:36:30.310Z,101599.21
2019-01-24T17:39:34.029Z,101602.73
2019-01-24T17:42:37.698Z,101611.11
2019-01-24T17:45:41.325Z,101613.25
2019-01-24T17:48:44.973Z,101611.91
2019-01-24T17:51:48.737Z,101616.70
2019-01-24T17:54:52.392Z,101607.38
2019-01-24T17:57:56.099Z,101616.84
2019-01-24T18:00:59.742Z,101625.81
2019-01-24T18:04:03.431Z,101624.36
2019-01-24T18:07:07.089Z,101625.19
2019-01-24T18:10:15.176Z,101630.78
2019-01-24T18:13:18.884Z,101633.06
2019-01-24T18:16:22.595Z,101631.57
2019-01-24T18:19:26.226Z,101636.57
2019-01-24T18:22:29.921Z,101645.15
2019-01-24T18:25:33.628Z,101642.51
2019-01-24T18:28:37.259Z,101651.88
2019-01-24T18:31:40.919Z,101649.54
2019-01-24T18:34:44.631Z,101653.42
2019-01-24T18:37:48.494Z,101652.47
2019-01-24T18:40:52.109Z,101656.47
2019-01-24T18:43:55.740Z,101659.38
2019-01-24T18:46:59.477Z,101661.85
2019-01-24T18:50:06.028Z,101663.76
2019-01-24T18:53:09.588Z,101664.61
2019-01-24T18:56:13.331Z,101669.10
2019-01-24T18:59:16.944Z,101671.06
2019-01-24T19:02:20.486Z,101670.31
2019-01-24T19:05:24.160Z,101670.68
2019-01-24T19:08:27.749Z,101675.07
2019-01-24T19:11:31.360Z,101675.98
2019-01-24T19:14:34.971Z,101671.60
2019-01-24T19:17:38.683Z,101667.36
2019-01-24T19:20:42.514Z,101674.03
2019-01-24T19:23:46.203Z,101675.15
2019-01-24T19:26:49.972Z,101674.74
2019-01-24T19:29:53.699Z,101677.36
2019-01-24T19:32:57.498Z,101678.57
2019-01-24T19:36:01.116Z,101682.28
2019-01-24T19:39:06.431Z,101687.22
2019-01-24T19:42:10.078Z,101692.00
2019-01-24T19:45:16.154Z,101695.73
2019-01-24T19:48:20.843Z,101700.02
2019-01-24T19:51:24.664Z,101698.31
2019-01-24T19:54:28.241Z,101703.24
2019-01-24T19:57:31.900Z,101709.03
2019-01-24T20:00:35.494Z,101707.73
2019-01-24T20:03:39.098Z,101713.11
2019-01-24T20:06:42.731Z,101715.56
2019-01-24T20:09:47.307Z,101723.77
2019-01-24T20:12:50.919Z,101724.45
2019-01-24T20:15:54.606Z,101726.10
2019-01-24T20:18:58.264Z,101730.22
2019-01-24T20:22:02.084Z,101733.17
2019-01-24T20:25:06.720Z,101735.22
2019-01-24T20:31:43.584Z,101743.43
2019-01-24T20:34:47.619Z,101745.62
2019-01-24T20:37:51.856Z,101746.18
2019-01-24T20:40:55.932Z,101745.58
2019-01-24T20:43:59.578Z,101745.77
2019-01-24T20:47:03.300Z,101753.39
2019-01-24T20:50:08.180Z,101750.37
2019-01-24T20:53:11.889Z,101758.24
2019-01-24T20:56:15.635Z,101756.28
2019-01-24T20:59:19.301Z,101759.89
2019-01-24T21:02:22.955Z,101766.37
2019-01-24T21:05:26.612Z,101762.69
2019-01-24T21:08:30.321Z,101766.51
2019-01-24T21:11:34.114Z,101764.08
2019-01-24T21:14:37.799Z,101764.03
2019-01-24T21:17:41.372Z,101760.80
2019-01-24T21:20:45.109Z,101759.14
2019-01-24T21:23:48.862Z,101759.83
2019-01-24T21:26:52.499Z,101768.34
2019-01-24T21:29:56.206Z,101769.89
2019-01-24T21:32:59.833Z,101773.40
2019-01-24T21:36:03.518Z,101774.42
2019-01-24T21:39:08.766Z,101773.26
2019-01-24T21:42:12.391Z,101777.99
2019-01-24T21:45:18.385Z,101779.65
2019-01-24T21:48:22.078Z,101782.88
2019-01-24T21:51:25.798Z,101775.25
2019-01-24T21:54:29.528Z,101775.99
2019-01-24T21:57:33.209Z,101777.34
2019-01-24T22:00:37.088Z,101778.51
2019-01-24T22:03:41.526Z,101776.29
2019-01-24T22:06:45.161Z,101777.54
2019-01-24T22:09:48.941Z,101777.66
2019-01-24T22:12:52.529Z,101779.86
2019-01-24T22:15:56.204Z,101777.77
2019-01-24T22:18:59.806Z,101774.01
2019-01-24T22:22:03.511Z,101772.29
2019-01-24T22:25:09.651Z,101774.73
2019-01-24T22:28:13.351Z,101771.52
2019-01-24T22:31:18.001Z,101783.20
2019-01-24T22:34:21.980Z,101780.53
2019-01-24T22:37:25.580Z,101784.66
2019-01-24T22:40:29.431Z,101785.34
2019-01-24T22:43:34.179Z,101790.55
2019-01-24T22:46:37.846Z,101790.80
2019-01-24T22:49:41.427Z,101790.45
2019-01-24T22:52:45.274Z,101793.53
2019-01-24T22:55:49.096Z,101788.34
2019-01-24T22:58:52.842Z,101795.57
2019-01-24T23:02:07.460Z,101798.34
2019-01-24T23:05:11.073Z,101796.99
2019-01-24T23:08:14.851Z,101800.83
2019-01-24T23:11:18.491Z,101800.63
2019-01-24T23:14:22.311Z,101808.99
2019-01-24T23:17:25.963Z,101807.17
2019-01-24T23:20:29.689Z,101808.60
2019-01-24T23:23:33.380Z,101808.55
2019-01-24T23:26:37.070Z,101809.64
2019-01-24T23:29:40.903Z,101809.81
2019-01-24T23:32:44.466Z,101806.82
2019-01-24T23:35:48.246Z,101809.13
2019-01-24T23:38:51.958Z,101801.33
2019-01-24T23:41:55.588Z,101805.47
2019-01-24T23:44:59.262Z,101803.79
2019-01-24T23:48:02.962Z,101803.42
2019-01-24T23:51:06.602Z,101815.32
2019-01-24T23:54:10.226Z,101810.71
2019-01-24T23:57:13.819Z,101810.92
